createdAt,value
2017-08-08T00:00:25.177Z,1007.51
2017-08-08T00:01:05.712Z,1007.5
2017-08-08T00:01:46.244Z,1007.5
2017-08-08T00:02:26.785Z,1007.46
2017-08-08T00:03:07.322Z,1007.46
2017-08-08T00:03:47.863Z,1007.46
2017-08-08T00:04:28.402Z,1007.44
2017-08-08T00:05:08.935Z,1007.44
2017-08-08T00:05:49.475Z,1007.46
2017-08-08T00:06:30.009Z,1007.39
2017-08-08T00:07:10.549Z,1007.41
2017-08-08T00:07:51.087Z,1007.38
2017-08-08T00:08:31.627Z,1007.34
2017-08-08T00:09:12.169Z,1007.31
2017-08-08T00:09:52.696Z,1007.33
2017-08-08T00:10:33.285Z,1007.28
2017-08-08T00:11:13.823Z,1007.33
2017-08-08T00:11:54.355Z,1007.27
2017-08-08T00:12:34.893Z,1007.3
2017-08-08T00:13:15.447Z,1007.26
2017-08-08T00:13:55.990Z,1007.22
2017-08-08T00:14:36.526Z,1007.18
2017-08-08T00:15:17.060Z,1007.16
2017-08-08T00:15:57.598Z,1007.15
2017-08-08T00:16:38.135Z,1007.15
2017-08-08T00:17:18.680Z,1007.09
2017-08-08T00:17:59.221Z,1007.09
2017-08-08T00:18:39.750Z,1007.06
2017-08-08T00:19:20.283Z,1007.05
2017-08-08T00:20:00.820Z,1007.06
2017-08-08T00:20:41.365Z,1007.01
2017-08-08T00:21:21.904Z,1007
2017-08-08T00:22:02.449Z,1006.97
2017-08-08T00:22:42.985Z,1007
2017-08-08T00:23:23.515Z,1006.96
2017-08-08T00:24:04.061Z,1006.94
2017-08-08T00:24:44.587Z,1006.95
2017-08-08T00:25:25.122Z,1006.96
2017-08-08T00:26:05.654Z,1006.93
2017-08-08T00:26:46.190Z,1006.93
2017-08-08T00:27:26.721Z,1006.91
2017-08-08T00:28:07.276Z,1006.93
2017-08-08T00:28:47.797Z,1006.88
2017-08-08T00:29:28.328Z,1006.88
2017-08-08T00:30:08.871Z,1006.92
2017-08-08T00:30:49.412Z,1006.87
2017-08-08T00:31:29.949Z,1006.89
2017-08-08T00:32:10.477Z,1006.9
2017-08-08T00:32:51.029Z,1006.87
2017-08-08T00:33:31.565Z,1006.84
2017-08-08T00:34:12.110Z,1006.8
2017-08-08T00:34:52.644Z,1006.81
2017-08-08T00:35:33.200Z,1006.8
2017-08-08T00:36:13.728Z,1006.8
2017-08-08T00:36:54.268Z,1006.77
2017-08-08T00:37:34.805Z,1006.78
2017-08-08T00:38:15.348Z,1006.75
2017-08-08T00:38:55.874Z,1006.74
2017-08-08T00:39:36.410Z,1006.74
2017-08-08T00:40:16.954Z,1006.78
2017-08-08T00:40:57.487Z,1006.74
2017-08-08T00:41:38.031Z,1006.78
2017-08-08T00:42:18.563Z,1006.72
2017-08-08T00:42:59.100Z,1006.69
2017-08-08T00:43:39.625Z,1006.68
2017-08-08T00:44:20.175Z,1006.68
2017-08-08T00:45:00.711Z,1006.69
2017-08-08T00:45:41.239Z,1006.66
2017-08-08T00:46:21.793Z,1006.66
2017-08-08T00:47:02.334Z,1006.66
2017-08-08T00:47:42.867Z,1006.65
2017-08-08T00:48:23.412Z,1006.68
2017-08-08T00:49:03.952Z,1006.66
2017-08-08T00:49:44.491Z,1006.64
2017-08-08T00:50:25.028Z,1006.64
2017-08-08T00:51:05.566Z,1006.61
2017-08-08T00:51:46.104Z,1006.55
2017-08-08T00:52:26.639Z,1006.55
2017-08-08T00:53:07.178Z,1006.54
2017-08-08T00:53:47.720Z,1006.54
2017-08-08T00:54:28.260Z,1006.49
2017-08-08T00:55:08.799Z,1006.51
2017-08-08T00:55:49.335Z,1006.54
2017-08-08T00:56:29.884Z,1006.57
2017-08-08T00:57:10.404Z,1006.51
2017-08-08T00:57:50.944Z,1006.55
2017-08-08T00:58:31.486Z,1006.56
2017-08-08T00:59:12.023Z,1006.57
2017-08-08T00:59:52.566Z,1006.55
2017-08-08T01:00:33.105Z,1006.54
2017-08-08T01:01:13.642Z,1006.56
2017-08-08T01:01:54.183Z,1006.51
2017-08-08T01:02:34.722Z,1006.51
2017-08-08T01:03:15.264Z,1006.49
2017-08-08T01:03:55.801Z,1006.47
2017-08-08T01:04:36.341Z,1006.45
2017-08-08T01:05:16.880Z,1006.43
2017-08-08T01:05:57.416Z,1006.43
2017-08-08T01:06:37.953Z,1006.44
2017-08-08T01:07:18.489Z,1006.41
2017-08-08T01:07:59.032Z,1006.41
2017-08-08T01:08:39.564Z,1006.4
2017-08-08T01:09:20.108Z,1006.39
2017-08-08T01:10:00.646Z,1006.36
2017-08-08T01:10:41.182Z,1006.32
2017-08-08T01:11:21.721Z,1006.33
2017-08-08T01:12:02.250Z,1006.33
2017-08-08T01:12:42.786Z,1006.33
2017-08-08T01:13:23.320Z,1006.29
2017-08-08T01:14:03.859Z,1006.32
2017-08-08T01:14:44.398Z,1006.3
2017-08-08T01:15:24.941Z,1006.29
2017-08-08T01:16:05.480Z,1006.29
2017-08-08T01:16:46.004Z,1006.25
2017-08-08T01:17:26.538Z,1006.25
2017-08-08T01:18:07.075Z,1006.27
2017-08-08T01:18:47.613Z,1006.28
2017-08-08T01:19:28.153Z,1006.28
2017-08-08T01:20:08.698Z,1006.24
2017-08-08T01:20:49.236Z,1006.25
2017-08-08T01:21:29.762Z,1006.2
2017-08-08T01:22:10.320Z,1006.24
2017-08-08T01:22:50.853Z,1006.22
2017-08-08T01:23:31.387Z,1006.2
2017-08-08T01:24:11.919Z,1006.17
2017-08-08T01:24:52.457Z,1006.19
2017-08-08T01:25:32.986Z,1006.17
2017-08-08T01:26:13.524Z,1006.14
2017-08-08T01:26:54.057Z,1006.13
2017-08-08T01:27:34.605Z,1006.11
2017-08-08T01:28:15.133Z,1006.08
2017-08-08T01:28:55.670Z,1006.1
2017-08-08T01:29:36.213Z,1006.09
2017-08-08T01:30:16.753Z,1006.02
2017-08-08T01:30:57.288Z,1006
2017-08-08T01:31:37.821Z,1006.04
2017-08-08T01:32:18.366Z,1006.04
2017-08-08T01:32:58.908Z,1006.09
2017-08-08T01:33:39.448Z,1006.07
2017-08-08T01:34:19.986Z,1006.07
2017-08-08T01:35:00.534Z,1006.1
2017-08-08T01:35:41.059Z,1006.11
2017-08-08T01:36:21.597Z,1006.14
2017-08-08T01:37:02.129Z,1006.14
2017-08-08T01:37:42.669Z,1006.14
2017-08-08T01:38:23.211Z,1006.11
2017-08-08T01:39:03.744Z,1006.14
2017-08-08T01:39:44.283Z,1006.15
2017-08-08T01:40:24.816Z,1006.15
2017-08-08T01:41:05.359Z,1006.14
2017-08-08T01:41:45.897Z,1006.11
2017-08-08T01:42:26.434Z,1006.13
2017-08-08T01:43:06.965Z,1006.11
2017-08-08T01:43:47.505Z,1006.1
2017-08-08T01:44:28.042Z,1006.1
2017-08-08T01:45:08.588Z,1006.1
2017-08-08T01:45:49.126Z,1006.08
2017-08-08T01:46:29.663Z,1006.06
2017-08-08T01:47:10.204Z,1006.07
2017-08-08T01:47:50.745Z,1006.03
2017-08-08T01:48:31.271Z,1006.05
2017-08-08T01:49:11.816Z,1006.05
2017-08-08T01:49:52.366Z,1006.02
2017-08-08T01:50:32.904Z,1006.02
2017-08-08T01:51:13.442Z,1006
2017-08-08T01:51:53.980Z,1005.99
2017-08-08T01:52:34.521Z,1005.98
2017-08-08T01:53:15.058Z,1005.94
2017-08-08T01:53:55.602Z,1005.91
2017-08-08T01:54:36.137Z,1005.88
2017-08-08T01:55:16.681Z,1005.92
2017-08-08T01:55:57.217Z,1005.85
2017-08-08T01:56:37.759Z,1005.82
2017-08-08T01:57:18.302Z,1005.81
2017-08-08T01:57:58.837Z,1005.8
2017-08-08T01:58:39.379Z,1005.82
2017-08-08T01:59:19.921Z,1005.83
2017-08-08T02:00:00.457Z,1005.83
2017-08-08T02:00:40.995Z,1005.8
2017-08-08T02:01:21.539Z,1005.78
2017-08-08T02:02:02.078Z,1005.81
2017-08-08T02:02:42.614Z,1005.78
2017-08-08T02:03:23.151Z,1005.76
2017-08-08T02:04:03.696Z,1005.77
2017-08-08T02:04:44.238Z,1005.74
2017-08-08T02:05:24.773Z,1005.71
2017-08-08T02:06:05.312Z,1005.72
2017-08-08T02:06:45.848Z,1005.71
2017-08-08T02:07:26.390Z,1005.7
2017-08-08T02:08:06.922Z,1005.72
2017-08-08T02:08:47.457Z,1005.67
2017-08-08T02:09:28.000Z,1005.66
2017-08-08T02:10:08.536Z,1005.66
2017-08-08T02:10:49.078Z,1005.61
2017-08-08T02:11:29.618Z,1005.63
2017-08-08T02:12:10.155Z,1005.63
2017-08-08T02:12:50.743Z,1005.58
2017-08-08T02:13:31.283Z,1005.62
2017-08-08T02:14:11.826Z,1005.61
2017-08-08T02:14:52.367Z,1005.62
2017-08-08T02:15:32.905Z,1005.58
2017-08-08T02:16:13.446Z,1005.59
2017-08-08T02:16:53.990Z,1005.61
2017-08-08T02:17:34.521Z,1005.6
2017-08-08T02:18:15.058Z,1005.57
2017-08-08T02:18:55.602Z,1005.57
2017-08-08T02:19:36.141Z,1005.6
2017-08-08T02:20:16.680Z,1005.59
2017-08-08T02:20:57.226Z,1005.61
2017-08-08T02:21:37.764Z,1005.58
2017-08-08T02:22:18.293Z,1005.59
2017-08-08T02:22:58.838Z,1005.6
2017-08-08T02:23:39.372Z,1005.58
2017-08-08T02:24:19.915Z,1005.6
2017-08-08T02:25:00.457Z,1005.59
2017-08-08T02:25:40.985Z,1005.56
2017-08-08T02:26:21.514Z,1005.58
2017-08-08T02:27:02.049Z,1005.56
2017-08-08T02:27:42.587Z,1005.54
2017-08-08T02:28:23.123Z,1005.56
2017-08-08T02:29:03.668Z,1005.56
2017-08-08T02:29:44.206Z,1005.57
2017-08-08T02:30:24.731Z,1005.55
2017-08-08T02:31:05.266Z,1005.54
2017-08-08T02:31:45.804Z,1005.53
2017-08-08T02:32:26.338Z,1005.48
2017-08-08T02:33:06.873Z,1005.47
2017-08-08T02:33:47.410Z,1005.44
2017-08-08T02:34:27.951Z,1005.44
2017-08-08T02:35:08.488Z,1005.37
2017-08-08T02:35:49.019Z,1005.35
2017-08-08T02:36:29.564Z,1005.32
2017-08-08T02:37:10.093Z,1005.3
2017-08-08T02:37:50.637Z,1005.27
2017-08-08T02:38:31.177Z,1005.28
2017-08-08T02:39:11.716Z,1005.24
2017-08-08T02:39:52.256Z,1005.24
2017-08-08T02:40:32.808Z,1005.24
2017-08-08T02:41:13.358Z,1005.24
2017-08-08T02:41:53.893Z,1005.23
2017-08-08T02:42:34.433Z,1005.21
2017-08-08T02:43:14.971Z,1005.2
2017-08-08T02:43:55.509Z,1005.16
2017-08-08T02:44:36.047Z,1005.16
2017-08-08T02:45:16.586Z,1005.15
2017-08-08T02:45:57.121Z,1005.17
2017-08-08T02:46:37.665Z,1005.13
2017-08-08T02:47:18.203Z,1005.11
2017-08-08T02:47:58.747Z,1005.09
2017-08-08T02:48:39.287Z,1005.09
2017-08-08T02:49:19.826Z,1005.08
2017-08-08T02:50:00.366Z,1005.06
2017-08-08T02:50:40.896Z,1005.01
2017-08-08T02:51:21.435Z,1004.99
2017-08-08T02:52:02.057Z,1004.92
2017-08-08T02:52:42.574Z,1004.9
2017-08-08T02:53:23.109Z,1004.89
2017-08-08T02:54:03.650Z,1004.9
2017-08-08T02:54:44.188Z,1004.9
2017-08-08T02:55:24.730Z,1004.92
2017-08-08T02:56:05.270Z,1004.94
2017-08-08T02:56:45.808Z,1004.96
2017-08-08T02:57:26.350Z,1005
2017-08-08T02:58:06.875Z,1004.97
2017-08-08T02:58:47.414Z,1004.97
2017-08-08T02:59:27.954Z,1004.94
2017-08-08T03:00:08.496Z,1004.94
2017-08-08T03:00:49.038Z,1004.88
2017-08-08T03:01:29.575Z,1004.91
2017-08-08T03:02:10.113Z,1004.91
2017-08-08T03:02:50.652Z,1004.91
2017-08-08T03:03:31.198Z,1004.91
2017-08-08T03:04:11.715Z,1004.87
2017-08-08T03:04:52.251Z,1004.9
2017-08-08T03:05:32.790Z,1004.88
2017-08-08T03:06:13.328Z,1004.88
2017-08-08T03:06:53.854Z,1004.86
2017-08-08T03:07:34.384Z,1004.82
2017-08-08T03:08:14.921Z,1004.86
2017-08-08T03:08:55.458Z,1004.84
2017-08-08T03:09:35.998Z,1004.82
2017-08-08T03:10:16.538Z,1004.83
2017-08-08T03:10:57.074Z,1004.8
2017-08-08T03:11:37.610Z,1004.79
2017-08-08T03:12:18.155Z,1004.78
2017-08-08T03:12:58.713Z,1004.76
2017-08-08T03:13:39.226Z,1004.73
2017-08-08T03:14:19.768Z,1004.76
2017-08-08T03:15:00.301Z,1004.7
2017-08-08T03:15:40.849Z,1004.74
2017-08-08T03:16:21.432Z,1004.72
2017-08-08T03:17:01.976Z,1004.67
2017-08-08T03:17:42.512Z,1004.69
2017-08-08T03:18:23.052Z,1004.66
2017-08-08T03:19:03.593Z,1004.67
2017-08-08T03:19:44.129Z,1004.66
2017-08-08T03:20:24.658Z,1004.62
2017-08-08T03:21:05.207Z,1004.67
2017-08-08T03:21:45.747Z,1004.63
2017-08-08T03:22:26.279Z,1004.6
2017-08-08T03:23:06.816Z,1004.57
2017-08-08T03:23:47.359Z,1004.59
2017-08-08T03:24:27.900Z,1004.59
2017-08-08T03:25:08.441Z,1004.58
2017-08-08T03:25:48.975Z,1004.57
2017-08-08T03:26:29.519Z,1004.61
2017-08-08T03:27:10.054Z,1004.62
2017-08-08T03:27:50.590Z,1004.6
2017-08-08T03:28:31.122Z,1004.68
2017-08-08T03:29:11.663Z,1004.68
2017-08-08T03:29:52.202Z,1004.69
2017-08-08T03:30:32.755Z,1004.73
2017-08-08T03:31:13.271Z,1004.75
2017-08-08T03:31:53.811Z,1004.77
2017-08-08T03:32:34.441Z,1004.8
2017-08-08T03:33:14.989Z,1004.82
2017-08-08T03:33:55.562Z,1004.81
2017-08-08T03:34:36.105Z,1004.8
2017-08-08T03:35:16.644Z,1004.8
2017-08-08T03:35:57.170Z,1004.72
2017-08-08T03:36:37.712Z,1004.74
2017-08-08T03:37:18.252Z,1004.73
2017-08-08T03:37:58.776Z,1004.69
2017-08-08T03:38:39.342Z,1004.67
2017-08-08T03:39:19.866Z,1004.67
2017-08-08T03:40:00.403Z,1004.66
2017-08-08T03:40:40.937Z,1004.62
2017-08-08T03:41:21.478Z,1004.64
2017-08-08T03:42:02.019Z,1004.65
2017-08-08T03:42:42.555Z,1004.63
2017-08-08T03:43:23.088Z,1004.62
2017-08-08T03:44:03.624Z,1004.64
2017-08-08T03:44:44.163Z,1004.61
2017-08-08T03:45:24.726Z,1004.59
2017-08-08T03:46:05.240Z,1004.61
2017-08-08T03:46:45.780Z,1004.62
2017-08-08T03:47:26.321Z,1004.59
2017-08-08T03:48:06.849Z,1004.56
2017-08-08T03:48:47.384Z,1004.52
2017-08-08T03:49:27.914Z,1004.49
2017-08-08T03:50:08.456Z,1004.48
2017-08-08T03:50:48.996Z,1004.41
2017-08-08T03:51:29.537Z,1004.36
2017-08-08T03:52:10.077Z,1004.32
2017-08-08T03:52:50.623Z,1004.29
2017-08-08T03:53:31.164Z,1004.32
2017-08-08T03:54:11.702Z,1004.3
2017-08-08T03:54:52.247Z,1004.32
2017-08-08T03:55:32.785Z,1004.32
2017-08-08T03:56:13.321Z,1004.33
2017-08-08T03:56:53.860Z,1004.32
2017-08-08T03:57:34.393Z,1004.31
2017-08-08T03:58:14.942Z,1004.36
2017-08-08T03:58:55.483Z,1004.33
2017-08-08T03:59:36.027Z,1004.36
2017-08-08T04:00:16.557Z,1004.35
2017-08-08T04:00:57.086Z,1004.37
2017-08-08T04:01:37.619Z,1004.35
2017-08-08T04:02:18.156Z,1004.33
2017-08-08T04:02:58.698Z,1004.31
2017-08-08T04:03:39.238Z,1004.33
2017-08-08T04:04:19.776Z,1004.31
2017-08-08T04:05:00.306Z,1004.25
2017-08-08T04:05:40.841Z,1004.24
2017-08-08T04:06:21.373Z,1004.19
2017-08-08T04:07:01.891Z,1004.21
2017-08-08T04:07:42.440Z,1004.18
2017-08-08T04:08:22.974Z,1004.18
2017-08-08T04:09:03.513Z,1004.18
2017-08-08T04:09:44.047Z,1004.17
2017-08-08T04:10:24.608Z,1004.15
2017-08-08T04:11:05.123Z,1004.18
2017-08-08T04:11:45.695Z,1004.18
2017-08-08T04:12:26.231Z,1004.18
2017-08-08T04:13:06.769Z,1004.18
2017-08-08T04:13:47.306Z,1004.16
2017-08-08T04:14:27.845Z,1004.15
2017-08-08T04:15:08.385Z,1004.11
2017-08-08T04:15:48.921Z,1004.14
2017-08-08T04:16:29.461Z,1004.11
2017-08-08T04:17:10.007Z,1004.14
2017-08-08T04:17:50.533Z,1004.1
2017-08-08T04:18:31.065Z,1004.14
2017-08-08T04:19:11.611Z,1004.15
2017-08-08T04:19:52.152Z,1004.14
2017-08-08T04:20:32.687Z,1004.15
2017-08-08T04:21:13.222Z,1004.16
2017-08-08T04:21:53.754Z,1004.15
2017-08-08T04:22:34.287Z,1004.18
2017-08-08T04:23:14.826Z,1004.22
2017-08-08T04:23:55.364Z,1004.23
2017-08-08T04:24:35.902Z,1004.24
2017-08-08T04:25:16.435Z,1004.25
2017-08-08T04:25:56.969Z,1004.27
2017-08-08T04:26:37.513Z,1004.24
2017-08-08T04:27:18.052Z,1004.26
2017-08-08T04:27:58.592Z,1004.24
2017-08-08T04:28:39.133Z,1004.19
2017-08-08T04:29:19.678Z,1004.18
2017-08-08T04:30:00.210Z,1004.2
2017-08-08T04:30:40.748Z,1004.17
2017-08-08T04:31:21.285Z,1004.14
2017-08-08T04:32:01.816Z,1004.15
2017-08-08T04:32:42.352Z,1004.14
2017-08-08T04:33:22.895Z,1004.12
2017-08-08T04:34:03.436Z,1004.13
2017-08-08T04:34:43.963Z,1004.12
2017-08-08T04:35:24.505Z,1004.16
2017-08-08T04:36:05.036Z,1004.17
2017-08-08T04:36:45.571Z,1004.15
2017-08-08T04:37:26.111Z,1004.16
2017-08-08T04:38:06.651Z,1004.18
2017-08-08T04:38:47.186Z,1004.16
2017-08-08T04:39:27.721Z,1004.16
2017-08-08T04:40:08.254Z,1004.16
2017-08-08T04:40:48.790Z,1004.11
2017-08-08T04:41:29.321Z,1004.12
2017-08-08T04:42:09.861Z,1004.08
2017-08-08T04:42:50.401Z,1004.08
2017-08-08T04:43:30.937Z,1004.05
2017-08-08T04:44:11.483Z,1004.06
2017-08-08T04:44:52.034Z,1004.02
2017-08-08T04:45:32.572Z,1004.01
2017-08-08T04:46:13.116Z,1003.99
2017-08-08T04:46:53.656Z,1003.95
2017-08-08T04:47:34.245Z,1003.95
2017-08-08T04:48:14.787Z,1003.94
2017-08-08T04:48:55.319Z,1003.91
2017-08-08T04:49:35.853Z,1003.89
2017-08-08T04:50:16.394Z,1003.88
2017-08-08T04:50:56.935Z,1003.83
2017-08-08T04:51:37.472Z,1003.77
2017-08-08T04:52:18.015Z,1003.79
2017-08-08T04:52:58.554Z,1003.73
2017-08-08T04:53:39.091Z,1003.73
2017-08-08T04:54:19.632Z,1003.71
2017-08-08T04:55:00.160Z,1003.72
2017-08-08T04:55:40.692Z,1003.69
2017-08-08T04:56:21.226Z,1003.7
2017-08-08T04:57:01.756Z,1003.68
2017-08-08T04:57:42.293Z,1003.72
2017-08-08T04:58:22.835Z,1003.7
2017-08-08T04:59:03.371Z,1003.69
2017-08-08T04:59:43.903Z,1003.73
2017-08-08T05:00:24.454Z,1003.71
2017-08-08T05:01:04.981Z,1003.69
2017-08-08T05:01:45.522Z,1003.69
2017-08-08T05:02:26.058Z,1003.7
2017-08-08T05:03:06.598Z,1003.67
2017-08-08T05:03:47.140Z,1003.66
2017-08-08T05:04:27.675Z,1003.63
2017-08-08T05:05:08.211Z,1003.66
2017-08-08T05:05:48.746Z,1003.64
2017-08-08T05:06:29.285Z,1003.68
2017-08-08T05:07:09.819Z,1003.68
2017-08-08T05:07:50.362Z,1003.64
2017-08-08T05:08:30.903Z,1003.66
2017-08-08T05:11:00.404Z,1003.7
2017-08-08T05:11:40.932Z,1003.72
2017-08-08T05:12:21.466Z,1003.7
2017-08-08T05:13:01.992Z,1003.76
2017-08-08T05:13:42.528Z,1003.71
2017-08-08T05:14:23.068Z,1003.68
2017-08-08T05:15:03.612Z,1003.7
2017-08-08T05:15:44.151Z,1003.66
2017-08-08T05:16:24.690Z,1003.68
2017-08-08T05:17:05.229Z,1003.65
2017-08-08T05:17:45.758Z,1003.61
2017-08-08T05:18:26.290Z,1003.63
2017-08-08T05:19:06.829Z,1003.62
2017-08-08T05:19:47.368Z,1003.58
2017-08-08T05:20:27.908Z,1003.59
2017-08-08T05:21:08.443Z,1003.63
2017-08-08T05:21:48.979Z,1003.57
2017-08-08T05:22:29.514Z,1003.6
2017-08-08T05:23:10.056Z,1003.55
2017-08-08T05:23:50.595Z,1003.59
2017-08-08T05:24:31.129Z,1003.64
2017-08-08T05:25:11.664Z,1003.65
2017-08-08T05:25:52.197Z,1003.64
2017-08-08T05:26:32.734Z,1003.63
2017-08-08T05:27:13.267Z,1003.66
2017-08-08T05:27:53.808Z,1003.67
2017-08-08T05:28:34.347Z,1003.69
2017-08-08T05:29:14.887Z,1003.69
2017-08-08T05:29:55.416Z,1003.67
2017-08-08T05:30:35.945Z,1003.63
2017-08-08T05:31:16.473Z,1003.65
2017-08-08T05:31:57.000Z,1003.66
2017-08-08T05:32:37.540Z,1003.69
2017-08-08T05:33:18.062Z,1003.67
2017-08-08T05:33:58.597Z,1003.69
2017-08-08T05:34:39.130Z,1003.69
2017-08-08T05:35:19.666Z,1003.68
2017-08-08T05:36:00.204Z,1003.6
2017-08-08T05:36:40.737Z,1003.6
2017-08-08T05:37:21.266Z,1003.55
2017-08-08T05:38:01.804Z,1003.54
2017-08-08T05:38:42.330Z,1003.5
2017-08-08T05:39:22.874Z,1003.46
2017-08-08T05:40:03.412Z,1003.48
2017-08-08T05:40:43.945Z,1003.44
2017-08-08T05:41:24.482Z,1003.43
2017-08-08T05:42:05.019Z,1003.44
2017-08-08T05:42:45.552Z,1003.43
2017-08-08T05:43:26.094Z,1003.51
2017-08-08T05:44:06.630Z,1003.53
2017-08-08T05:44:47.167Z,1003.53
2017-08-08T05:45:27.711Z,1003.58
2017-08-08T05:46:08.260Z,1003.6
2017-08-08T05:46:48.796Z,1003.56
2017-08-08T05:47:29.336Z,1003.62
2017-08-08T05:48:09.860Z,1003.58
2017-08-08T05:48:50.393Z,1003.57
2017-08-08T05:49:30.926Z,1003.57
2017-08-08T05:50:11.464Z,1003.56
2017-08-08T05:50:52.002Z,1003.57
2017-08-08T05:51:32.541Z,1003.52
2017-08-08T05:52:13.084Z,1003.53
2017-08-08T05:52:53.607Z,1003.52
2017-08-08T05:53:34.149Z,1003.54
2017-08-08T05:54:14.686Z,1003.53
2017-08-08T05:54:55.230Z,1003.51
2017-08-08T05:55:35.769Z,1003.5
2017-08-08T05:56:16.307Z,1003.53
2017-08-08T05:56:56.852Z,1003.49
2017-08-08T05:57:37.388Z,1003.49
2017-08-08T05:58:17.898Z,1003.47
2017-08-08T05:58:58.440Z,1003.43
2017-08-08T05:59:38.974Z,1003.44
2017-08-08T06:00:19.507Z,1003.44
2017-08-08T06:01:00.043Z,1003.46
2017-08-08T06:01:40.573Z,1003.4
2017-08-08T06:02:21.110Z,1003.45
2017-08-08T06:03:01.651Z,1003.45
2017-08-08T06:03:42.183Z,1003.43
2017-08-08T06:04:22.728Z,1003.46
2017-08-08T06:05:03.267Z,1003.46
2017-08-08T06:05:43.804Z,1003.45
2017-08-08T06:06:24.358Z,1003.46
2017-08-08T06:07:04.895Z,1003.43
2017-08-08T06:07:45.424Z,1003.43
2017-08-08T06:08:25.968Z,1003.47
2017-08-08T06:09:06.604Z,1003.47
2017-08-08T06:09:47.147Z,1003.45
2017-08-08T06:10:27.684Z,1003.43
2017-08-08T06:11:08.219Z,1003.46
2017-08-08T06:11:48.764Z,1003.44
2017-08-08T06:12:29.349Z,1003.44
2017-08-08T06:13:10.365Z,1003.45
2017-08-08T06:13:50.904Z,1003.51
2017-08-08T06:14:31.439Z,1003.5
2017-08-08T06:15:11.972Z,1003.47
2017-08-08T06:15:52.511Z,1003.48
2017-08-08T06:16:33.052Z,1003.47
2017-08-08T06:17:13.586Z,1003.5
2017-08-08T06:17:54.111Z,1003.46
2017-08-08T06:18:34.640Z,1003.5
2017-08-08T06:19:15.175Z,1003.52
2017-08-08T06:19:55.715Z,1003.55
2017-08-08T06:20:36.273Z,1003.58
2017-08-08T06:21:16.795Z,1003.61
2017-08-08T06:21:57.335Z,1003.63
2017-08-08T06:22:37.869Z,1003.62
2017-08-08T06:23:18.406Z,1003.66
2017-08-08T06:23:58.943Z,1003.66
2017-08-08T06:24:39.479Z,1003.68
2017-08-08T06:25:20.019Z,1003.66
2017-08-08T06:26:00.561Z,1003.66
2017-08-08T06:26:41.094Z,1003.64
2017-08-08T06:27:21.639Z,1003.63
2017-08-08T06:28:02.180Z,1003.61
2017-08-08T06:28:42.715Z,1003.63
2017-08-08T06:29:23.251Z,1003.62
2017-08-08T06:30:03.784Z,1003.58
2017-08-08T06:30:44.316Z,1003.62
2017-08-08T06:31:24.855Z,1003.6
2017-08-08T06:32:05.394Z,1003.59
2017-08-08T06:32:45.936Z,1003.6
2017-08-08T06:33:26.482Z,1003.61
2017-08-08T06:34:07.021Z,1003.61
2017-08-08T06:34:47.560Z,1003.59
2017-08-08T06:35:28.101Z,1003.59
2017-08-08T06:36:08.640Z,1003.63
2017-08-08T06:36:49.176Z,1003.58
2017-08-08T06:37:29.713Z,1003.59
2017-08-08T06:38:10.266Z,1003.55
2017-08-08T06:38:50.801Z,1003.54
2017-08-08T06:39:31.339Z,1003.6
2017-08-08T06:40:11.879Z,1003.55
2017-08-08T06:40:52.416Z,1003.59
2017-08-08T06:41:32.957Z,1003.6
2017-08-08T06:42:13.496Z,1003.62
2017-08-08T06:42:54.037Z,1003.61
2017-08-08T06:43:34.579Z,1003.61
2017-08-08T06:44:15.113Z,1003.64
2017-08-08T06:44:55.656Z,1003.6
2017-08-08T06:45:36.197Z,1003.65
2017-08-08T06:46:16.728Z,1003.66
2017-08-08T06:46:57.273Z,1003.65
2017-08-08T06:47:37.805Z,1003.66
2017-08-08T06:48:18.341Z,1003.67
2017-08-08T06:48:58.880Z,1003.67
2017-08-08T06:49:39.421Z,1003.65
2017-08-08T06:50:19.960Z,1003.63
2017-08-08T06:51:00.503Z,1003.62
2017-08-08T06:51:41.039Z,1003.62
2017-08-08T06:52:21.577Z,1003.61
2017-08-08T06:53:02.114Z,1003.59
2017-08-08T06:53:42.655Z,1003.61
2017-08-08T06:54:23.188Z,1003.61
2017-08-08T06:55:03.719Z,1003.62
2017-08-08T06:55:44.256Z,1003.58
2017-08-08T06:56:24.786Z,1003.61
2017-08-08T06:57:05.328Z,1003.59
2017-08-08T06:57:45.861Z,1003.57
2017-08-08T06:58:26.395Z,1003.58
2017-08-08T06:59:06.939Z,1003.59
2017-08-08T06:59:47.477Z,1003.62
2017-08-08T07:00:28.018Z,1003.58
2017-08-08T07:01:08.622Z,1003.61
2017-08-08T07:01:49.156Z,1003.54
2017-08-08T07:02:29.696Z,1003.54
2017-08-08T07:03:10.238Z,1003.59
2017-08-08T07:03:50.786Z,1003.59
2017-08-08T07:04:31.326Z,1003.57
2017-08-08T07:05:11.863Z,1003.6
2017-08-08T07:05:52.403Z,1003.56
2017-08-08T07:06:32.940Z,1003.55
2017-08-08T07:07:13.486Z,1003.54
2017-08-08T07:07:54.024Z,1003.55
2017-08-08T07:08:34.555Z,1003.54
2017-08-08T07:09:15.087Z,1003.55
2017-08-08T07:09:55.629Z,1003.5
2017-08-08T07:10:36.168Z,1003.52
2017-08-08T07:11:16.696Z,1003.49
2017-08-08T07:11:57.237Z,1003.49
2017-08-08T07:12:37.765Z,1003.51
2017-08-08T07:13:18.302Z,1003.52
2017-08-08T07:13:58.839Z,1003.48
2017-08-08T07:14:39.385Z,1003.48
2017-08-08T07:15:19.928Z,1003.47
2017-08-08T07:16:00.451Z,1003.45
2017-08-08T07:16:40.982Z,1003.4
2017-08-08T07:17:21.518Z,1003.4
2017-08-08T07:18:02.053Z,1003.38
2017-08-08T07:18:42.576Z,1003.37
2017-08-08T07:19:23.108Z,1003.32
2017-08-08T07:20:03.648Z,1003.32
2017-08-08T07:20:44.180Z,1003.27
2017-08-08T07:21:24.720Z,1003.27
2017-08-08T07:22:05.259Z,1003.25
2017-08-08T07:22:45.795Z,1003.27
2017-08-08T07:23:26.329Z,1003.19
2017-08-08T07:24:06.877Z,1003.19
2017-08-08T07:24:47.390Z,1003.18
2017-08-08T07:25:27.935Z,1003.16
2017-08-08T07:26:08.467Z,1003.16
2017-08-08T07:26:49.006Z,1003.16
2017-08-08T07:27:29.557Z,1003.14
2017-08-08T07:28:10.101Z,1003.15
2017-08-08T07:28:50.645Z,1003.1
2017-08-08T07:29:31.185Z,1003.14
2017-08-08T07:30:11.723Z,1003.11
2017-08-08T07:30:52.261Z,1003.12
2017-08-08T07:31:32.793Z,1003.11
2017-08-08T07:32:13.340Z,1003.13
2017-08-08T07:32:53.872Z,1003.11
2017-08-08T07:33:34.401Z,1003.12
2017-08-08T07:34:14.940Z,1003.12
2017-08-08T07:34:55.465Z,1003.08
2017-08-08T07:35:36.005Z,1003.09
2017-08-08T07:36:16.536Z,1003.06
2017-08-08T07:36:57.075Z,1003.07
2017-08-08T07:37:37.612Z,1003.05
2017-08-08T07:38:18.145Z,1003.05
2017-08-08T07:38:58.684Z,1003.02
2017-08-08T07:39:39.220Z,1003.03
2017-08-08T07:40:19.757Z,1003.04
2017-08-08T07:41:00.298Z,1003
2017-08-08T07:41:40.839Z,1003.04
2017-08-08T07:42:21.380Z,1003.05
2017-08-08T07:43:01.920Z,1003.08
2017-08-08T07:43:42.457Z,1003.09
2017-08-08T07:44:22.996Z,1003.1
2017-08-08T07:45:03.537Z,1003.03
2017-08-08T07:45:44.075Z,1003.06
2017-08-08T07:46:24.613Z,1003.03
2017-08-08T07:47:05.153Z,1003.02
2017-08-08T07:47:45.722Z,1003
2017-08-08T07:48:26.255Z,1003.01
2017-08-08T07:49:06.802Z,1002.99
2017-08-08T07:49:47.337Z,1003.01
2017-08-08T07:50:27.877Z,1002.99
2017-08-08T07:51:08.417Z,1002.99
2017-08-08T07:51:48.957Z,1002.98
2017-08-08T07:52:29.540Z,1003.01
2017-08-08T07:53:10.074Z,1003.03
2017-08-08T07:53:50.612Z,1003.03
2017-08-08T07:54:31.148Z,1003.02
2017-08-08T07:55:11.685Z,1003.05
2017-08-08T07:55:52.215Z,1003.07
2017-08-08T07:56:32.756Z,1003.07
2017-08-08T07:57:13.294Z,1003.12
2017-08-08T07:57:53.830Z,1003.07
2017-08-08T07:58:34.367Z,1003.07
2017-08-08T07:59:14.907Z,1003.03
2017-08-08T07:59:55.434Z,1003.03
2017-08-08T08:00:35.970Z,1003.03
2017-08-08T08:01:16.524Z,1003.04
2017-08-08T08:01:57.045Z,1002.99
2017-08-08T08:02:37.587Z,1002.99
2017-08-08T08:03:18.127Z,1002.96
2017-08-08T08:03:58.668Z,1002.95
2017-08-08T08:04:39.209Z,1002.94
2017-08-08T08:05:19.746Z,1002.93
2017-08-08T08:06:00.289Z,1002.88
2017-08-08T08:06:40.823Z,1002.83
2017-08-08T08:07:21.361Z,1002.86
2017-08-08T08:08:01.903Z,1002.84
2017-08-08T08:08:42.445Z,1002.85
2017-08-08T08:09:22.973Z,1002.82
2017-08-08T08:10:03.512Z,1002.82
2017-08-08T08:10:44.055Z,1002.81
2017-08-08T08:11:24.588Z,1002.82
2017-08-08T08:12:05.141Z,1002.83
2017-08-08T08:12:45.692Z,1002.86
2017-08-08T08:13:26.221Z,1002.87
2017-08-08T08:14:06.762Z,1002.9